Venice, Florida
Current Conditions -  °F | °C
As of 8:55 PM on Saturday 22 Nov 2014 (Local Time) from KVNC Reporting Station
Overcast Overcast  
Wind Chill: 73°   Ceiling: 3800
Heat Index: 73°   Visibility: 10mi
Dew Point: 66°   Wind: 12mph
Humidity: 78%   Direction: 100°E
Pressure: 30.08"   Gusts: 20mph
Location:  27.1°N, 82.45°W
Report Text: KVNC 230155Z AUTO 10010G17KT 10SM FEW025 BKN038 OVC070 23/19 A3008 RMK AO2 TSNO
Loading
Personal Weather Stations






























Interactive Weather Map New forecast layout! Learn more

10-Day Weather Forecast

Advertisements
Track Severe Weather on mobile